sensor_id;sensor_type;location;lat;lon;timestamp;pressure;altitude;pressure_sealevel;temperature;humidity
45621;BME280;31345;51.522;10.702;2023-09-12T00:02:07;98786.72;;;17.92;100.00
45621;BME280;31345;51.522;10.702;2023-09-12T00:04:40;98790.69;;;17.70;100.00
45621;BME280;31345;51.522;10.702;2023-09-12T00:07:13;98787.09;;;17.53;100.00
45621;BME280;31345;51.522;10.702;2023-09-12T00:09:45;98787.78;;;17.36;100.00
45621;BME280;31345;51.522;10.702;2023-09-12T00:12:22;98791.63;;;17.60;100.00
45621;BME280;31345;51.522;10.702;2023-09-12T00:14:56;98800.91;;;17.65;100.00
45621;BME280;31345;51.522;10.702;2023-09-12T00:17:29;98795.06;;;17.79;100.00
45621;BME280;31345;51.522;10.702;2023-09-12T00:19:56;98799.88;;;17.84;100.00
45621;BME280;31345;51.522;10.702;2023-09-12T00:22:29;98800.19;;;17.81;100.00
45621;BME280;31345;51.522;10.702;2023-09-12T00:25:02;98798.88;;;17.85;100.00
45621;BME280;31345;51.522;10.702;2023-09-12T00:27:29;98795.06;;;17.79;100.00
45621;BME280;31345;51.522;10.702;2023-09-12T00:30:04;98795.09;;;17.87;100.00
45621;BME280;31345;51.522;10.702;2023-09-12T00:32:37;98795.91;;;17.80;100.00
45621;BME280;31345;51.522;10.702;2023-09-12T00:35:10;98788.16;;;17.60;100.00
45621;BME280;31345;51.522;10.702;2023-09-12T00:37:42;98788.50;;;17.65;100.00
45621;BME280;31345;51.522;10.702;2023-09-12T00:40:10;98788.47;;;17.57;100.00
45621;BME280;31345;51.522;10.702;2023-09-12T00:42:43;98787.94;;;17.53;100.00
45621;BME280;31345;51.522;10.702;2023-09-12T00:45:17;98783.03;;;17.58;100.00
45621;BME280;31345;51.522;10.702;2023-09-12T00:47:50;98777.59;;;17.60;100.00
45621;BME280;31345;51.522;10.702;2023-09-12T00:50:24;98776.53;;;17.53;100.00
45621;BME280;31345;51.522;10.702;2023-09-12T00:52:57;98775.34;;;17.47;100.00
45621;BME280;31345;51.522;10.702;2023-09-12T00:55:32;98787.09;;;17.53;100.00
45621;BME280;31345;51.522;10.702;2023-09-12T00:58:06;98784.16;;;17.56;100.00
45621;BME280;31345;51.522;10.702;2023-09-12T01:00:41;98788.44;;;17.39;100.00
45621;BME280;31345;51.522;10.702;2023-09-12T01:03:14;98784.53;;;17.43;100.00
45621;BME280;31345;51.522;10.702;2023-09-12T01:05:47;98785.25;;;17.45;100.00
45621;BME280;31345;51.522;10.702;2023-09-12T01:08:20;98786.91;;;17.46;100.00
45621;BME280;31345;51.522;10.702;2023-09-12T01:10:55;98785.16;;;17.55;100.00
45621;BME280;31345;51.522;10.702;2023-09-12T01:13:27;98783.56;;;17.26;100.00
45621;BME280;31345;51.522;10.702;2023-09-12T01:16:02;98778.19;;;17.17;100.00
45621;BME280;31345;51.522;10.702;2023-09-12T01:18:35;98778.75;;;17.21;100.00
45621;BME280;31345;51.522;10.702;2023-09-12T01:24:59;98776.03;;;17.31;100.00
45621;BME280;31345;51.522;10.702;2023-09-12T01:27:38;98782.53;;;17.00;100.00
45621;BME280;31345;51.522;10.702;2023-09-12T01:30:17;98778.88;;;16.83;100.00
45621;BME280;31345;51.522;10.702;2023-09-12T01:32:50;98779.88;;;16.82;100.00
45621;BME280;31345;51.522;10.702;2023-09-12T01:35:23;98778.66;;;16.94;100.00
45621;BME280;31345;51.522;10.702;2023-09-12T01:37:51;98774.13;;;17.05;100.00
45621;BME280;31345;51.522;10.702;2023-09-12T01:40:33;98766.97;;;16.97;100.00
45621;BME280;31345;51.522;10.702;2023-09-12T01:43:08;98770.06;;;17.10;100.00
45621;BME280;31345;51.522;10.702;2023-09-12T01:45:42;98770.41;;;17.16;100.00
45621;BME280;31345;51.522;10.702;2023-09-12T01:48:19;98767.56;;;16.91;100.00
45621;BME280;31345;51.522;10.702;2023-09-12T01:50:54;98775.19;;;16.94;100.00
45621;BME280;31345;51.522;10.702;2023-09-12T01:53:27;98762.97;;;17.11;100.00
45621;BME280;31345;51.522;10.702;2023-09-12T01:56:00;98768.84;;;17.05;100.00
45621;BME280;31345;51.522;10.702;2023-09-12T01:58:35;98766.41;;;17.11;100.00
45621;BME280;31345;51.522;10.702;2023-09-12T02:01:08;98766.66;;;17.18;100.00
45621;BME280;31345;51.522;10.702;2023-09-12T02:03:41;98764.19;;;17.17;100.00
45621;BME280;31345;51.522;10.702;2023-09-12T02:06:13;98761.31;;;17.10;100.00
45621;BME280;31345;51.522;10.702;2023-09-12T02:08:46;98755.41;;;16.98;100.00
45621;BME280;31345;51.522;10.702;2023-09-12T02:11:13;98747.34;;;17.18;100.00
45621;BME280;31345;51.522;10.702;2023-09-12T02:13:47;98745.91;;;17.05;100.00
45621;BME280;31345;51.522;10.702;2023-09-12T02:16:20;98747.34;;;17.00;100.00
45621;BME280;31345;51.522;10.702;2023-09-12T02:18:52;98752.53;;;16.73;100.00
45621;BME280;31345;51.522;10.702;2023-09-12T02:21:25;98752.06;;;16.78;100.00
45621;BME280;31345;51.522;10.702;2023-09-12T02:23:58;98754.22;;;16.92;100.00
45621;BME280;31345;51.522;10.702;2023-09-12T02:26:30;98751.84;;;16.89;100.00
45621;BME280;31345;51.522;10.702;2023-09-12T02:29:08;98758.81;;;17.08;100.00
45621;BME280;31345;51.522;10.702;2023-09-12T02:31:41;98762.06;;;17.02;100.00
45621;BME280;31345;51.522;10.702;2023-09-12T02:34:14;98760.78;;;17.06;100.00
45621;BME280;31345;51.522;10.702;2023-09-12T02:36:47;98758.81;;;17.08;100.00
45621;BME280;31345;51.522;10.702;2023-09-12T02:39:20;98756.34;;;17.07;100.00
45621;BME280;31345;51.522;10.702;2023-09-12T02:41:52;98758.56;;;17.02;100.00
45621;BME280;31345;51.522;10.702;2023-09-12T02:44:26;98754.75;;;16.96;100.00
45621;BME280;31345;51.522;10.702;2023-09-12T02:46:59;98756.47;;;16.87;100.00
45621;BME280;31345;51.522;10.702;2023-09-12T02:49:32;98749.28;;;16.79;100.00
45621;BME280;31345;51.522;10.702;2023-09-12T02:52:05;98748.06;;;16.74;100.00
45621;BME280;31345;51.522;10.702;2023-09-12T02:54:37;98752.84;;;16.88;100.00
45621;BME280;31345;51.522;10.702;2023-09-12T02:57:10;98759.13;;;16.87;100.00
45621;BME280;31345;51.522;10.702;2023-09-12T02:59:44;98759.41;;;16.84;100.00
45621;BME280;31345;51.522;10.702;2023-09-12T03:02:12;98761.38;;;16.82;100.00
45621;BME280;31345;51.522;10.702;2023-09-12T03:04:44;98763.19;;;16.81;100.00
45621;BME280;31345;51.522;10.702;2023-09-12T03:07:17;98758.66;;;16.92;100.00
45621;BME280;31345;51.522;10.702;2023-09-12T03:09:50;98756.25;;;16.80;100.00
45621;BME280;31345;51.522;10.702;2023-09-12T03:12:23;98754.81;;;16.86;100.00
45621;BME280;31345;51.522;10.702;2023-09-12T03:14:57;98763.84;;;16.83;100.00
45621;BME280;31345;51.522;10.702;2023-09-12T03:17:30;98759.03;;;16.79;100.00
45621;BME280;31345;51.522;10.702;2023-09-12T03:20:04;98755.41;;;16.80;100.00
45621;BME280;31345;51.522;10.702;2023-09-12T03:22:38;98759.25;;;16.85;100.00
45621;BME280;31345;51.522;10.702;2023-09-12T03:25:11;98760.41;;;16.83;100.00
45621;BME280;31345;51.522;10.702;2023-09-12T03:27:44;98751.56;;;16.74;100.00
45621;BME280;31345;51.522;10.702;2023-09-12T03:30:19;98752.69;;;16.71;100.00
45621;BME280;31345;51.522;10.702;2023-09-12T03:32:52;98750.66;;;16.37;100.00
45621;BME280;31345;51.522;10.702;2023-09-12T03:35:25;98741.41;;;16.51;100.00
45621;BME280;31345;51.522;10.702;2023-09-12T03:37:57;98743.16;;;16.42;100.00
45621;BME280;31345;51.522;10.702;2023-09-12T03:40:31;98741.03;;;16.46;100.00
45621;BME280;31345;51.522;10.702;2023-09-12T03:43:04;98743.09;;;16.52;100.00
45621;BME280;31345;51.522;10.702;2023-09-12T03:45:38;98753.78;;;16.51;100.00
45621;BME280;31345;51.522;10.702;2023-09-12T03:48:10;98752.75;;;16.62;100.00
45621;BME280;31345;51.522;10.702;2023-09-12T03:50:44;98756.66;;;16.57;100.00
45621;BME280;31345;51.522;10.702;2023-09-12T03:53:17;98746.19;;;16.66;100.00
45621;BME280;31345;51.522;10.702;2023-09-12T03:55:50;98744.59;;;16.55;100.00
45621;BME280;31345;51.522;10.702;2023-09-12T03:58:22;98744.06;;;16.51;100.00
45621;BME280;31345;51.522;10.702;2023-09-12T04:00:56;98754.81;;;16.40;100.00
45621;BME280;31345;51.522;10.702;2023-09-12T04:03:29;98762.84;;;16.48;100.00
45621;BME280;31345;51.522;10.702;2023-09-12T04:06:02;98763.75;;;16.57;100.00
45621;BME280;31345;51.522;10.702;2023-09-12T04:08:29;98750.38;;;16.40;100.00
45621;BME280;31345;51.522;10.702;2023-09-12T04:11:03;98760.91;;;16.40;100.00
45621;BME280;31345;51.522;10.702;2023-09-12T04:13:36;98766.09;;;16.32;100.00
45621;BME280;31345;51.522;10.702;2023-09-12T04:16:10;98768.75;;;16.32;100.00
45621;BME280;31345;51.522;10.702;2023-09-12T04:18:42;98771.25;;;16.33;100.00
45621;BME280;31345;51.522;10.702;2023-09-12T04:21:10;98776.59;;;16.42;100.00
45621;BME280;31345;51.522;10.702;2023-09-12T04:23:43;98779.47;;;16.11;100.00
45621;BME280;31345;51.522;10.702;2023-09-12T04:26:16;98778.81;;;16.08;100.00
45621;BME280;31345;51.522;10.702;2023-09-12T04:28:49;98774.06;;;16.12;100.00
45621;BME280;31345;51.522;10.702;2023-09-12T04:31:23;98778.78;;;16.18;100.00
45621;BME280;31345;51.522;10.702;2023-09-12T04:33:56;98772.50;;;16.29;100.00
45621;BME280;31345;51.522;10.702;2023-09-12T04:36:29;98780.47;;;16.10;100.00
45621;BME280;31345;51.522;10.702;2023-09-12T04:39:01;98777.72;;;16.01;100.00
45621;BME280;31345;51.522;10.702;2023-09-12T04:41:34;98777.19;;;15.88;100.00
45621;BME280;31345;51.522;10.702;2023-09-12T04:44:07;98770.94;;;15.99;100.00
45621;BME280;31345;51.522;10.702;2023-09-12T04:46:41;98770.91;;;16.08;100.00
45621;BME280;31345;51.522;10.702;2023-09-12T04:49:08;98766.38;;;15.91;100.00
45621;BME280;31345;51.522;10.702;2023-09-12T04:51:41;98772.22;;;15.85;100.00
45621;BME280;31345;51.522;10.702;2023-09-12T04:54:14;98767.50;;;15.78;100.00
45621;BME280;31345;51.522;10.702;2023-09-12T04:56:47;98767.50;;;15.88;100.00
45621;BME280;31345;51.522;10.702;2023-09-12T04:59:20;98768.88;;;15.92;100.00
45621;BME280;31345;51.522;10.702;2023-09-12T05:01:54;98766.94;;;15.94;100.00
45621;BME280;31345;51.522;10.702;2023-09-12T05:04:26;98766.78;;;15.96;100.00
45621;BME280;31345;51.522;10.702;2023-09-12T05:07:00;98762.94;;;15.80;100.00
45621;BME280;31345;51.522;10.702;2023-09-12T05:09:33;98768.72;;;15.94;100.00
45621;BME280;31345;51.522;10.702;2023-09-12T05:12:05;98771.47;;;16.02;100.00
45621;BME280;31345;51.522;10.702;2023-09-12T05:14:38;98779.50;;;16.01;100.00
45621;BME280;31345;51.522;10.702;2023-09-12T05:17:12;98789.22;;;16.10;100.00
45621;BME280;31345;51.522;10.702;2023-09-12T05:19:45;98793.50;;;16.11;100.00
45621;BME280;31345;51.522;10.702;2023-09-12T05:22:17;98788.56;;;15.98;100.00
45621;BME280;31345;51.522;10.702;2023-09-12T05:24:51;98795.59;;;16.07;100.00
45621;BME280;31345;51.522;10.702;2023-09-12T05:27:23;98800.16;;;16.15;100.00
45621;BME280;31345;51.522;10.702;2023-09-12T05:29:56;98802.06;;;16.23;100.00
45621;BME280;31345;51.522;10.702;2023-09-12T05:32:30;98804.56;;;16.25;100.00
45621;BME280;31345;51.522;10.702;2023-09-12T05:34:58;98803.19;;;16.20;100.00
45621;BME280;31345;51.522;10.702;2023-09-12T05:37:25;98802.06;;;16.23;100.00
45621;BME280;31345;51.522;10.702;2023-09-12T05:39:58;98799.56;;;16.21;100.00
45621;BME280;31345;51.522;10.702;2023-09-12T05:42:30;98803.63;;;16.16;100.00
45621;BME280;31345;51.522;10.702;2023-09-12T05:45:05;98806.22;;;16.26;100.00
45621;BME280;31345;51.522;10.702;2023-09-12T05:47:39;98812.59;;;16.33;100.00
45621;BME280;31345;51.522;10.702;2023-09-12T05:50:12;98817.88;;;16.33;100.00
45621;BME280;31345;51.522;10.702;2023-09-12T05:52:45;98816.22;;;16.32;100.00
45621;BME280;31345;51.522;10.702;2023-09-12T05:55:18;98824.44;;;16.29;100.00
45621;BME280;31345;51.522;10.702;2023-09-12T05:57:51;98833.66;;;16.43;100.00
45621;BME280;31345;51.522;10.702;2023-09-12T06:00:26;98836.88;;;16.46;100.00
45621;BME280;31345;51.522;10.702;2023-09-12T06:03:00;98830.38;;;16.41;100.00
45621;BME280;31345;51.522;10.702;2023-09-12T06:05:32;98837.00;;;16.45;100.00
45621;BME280;31345;51.522;10.702;2023-09-12T06:08:05;98836.72;;;16.48;100.00
45621;BME280;31345;51.522;10.702;2023-09-12T06:10:37;98829.56;;;16.58;100.00
45621;BME280;31345;51.522;10.702;2023-09-12T06:13:10;98822.69;;;16.76;100.00
45621;BME280;31345;51.522;10.702;2023-09-12T06:15:42;98825.13;;;16.87;100.00
45621;BME280;31345;51.522;10.702;2023-09-12T06:18:16;98825.06;;;16.97;100.00
45621;BME280;31345;51.522;10.702;2023-09-12T06:20:49;98829.66;;;17.13;100.00
45621;BME280;31345;51.522;10.702;2023-09-12T06:23:23;98821.38;;;17.26;100.00
45621;BME280;31345;51.522;10.702;2023-09-12T06:25:56;98832.66;;;17.46;100.00
45621;BME280;31345;51.522;10.702;2023-09-12T06:28:30;98835.53;;;17.53;100.00
45621;BME280;31345;51.522;10.702;2023-09-12T06:31:02;98834.00;;;17.69;100.00
45621;BME280;31345;51.522;10.702;2023-09-12T06:33:37;98840.22;;;17.86;100.00
45621;BME280;31345;51.522;10.702;2023-09-12T06:36:10;98843.00;;;18.03;100.00
45621;BME280;31345;51.522;10.702;2023-09-12T06:38:42;98841.19;;;18.11;100.00
45621;BME280;31345;51.522;10.702;2023-09-12T06:41:15;98840.31;;;18.29;100.00
45621;BME280;31345;51.522;10.702;2023-09-12T06:43:47;98840.44;;;18.54;100.00
45621;BME280;31345;51.522;10.702;2023-09-12T06:46:20;98848.34;;;18.81;100.00
45621;BME280;31345;51.522;10.702;2023-09-12T06:48:54;98852.22;;;19.03;100.00
45621;BME280;31345;51.522;10.702;2023-09-12T06:51:28;98848.09;;;19.17;100.00
45621;BME280;31345;51.522;10.702;2023-09-12T06:54:00;98848.13;;;19.34;100.00
45621;BME280;31345;51.522;10.702;2023-09-12T06:56:33;98854.28;;;19.51;100.00
45621;BME280;31345;51.522;10.702;2023-09-12T06:59:08;98847.66;;;19.63;100.00
45621;BME280;31345;51.522;10.702;2023-09-12T07:01:42;98851.66;;;19.76;100.00
45621;BME280;31345;51.522;10.702;2023-09-12T07:04:17;98849.66;;;19.86;100.00
45621;BME280;31345;51.522;10.702;2023-09-12T07:06:50;98846.34;;;20.01;100.00
45621;BME280;31345;51.522;10.702;2023-09-12T07:09:23;98846.13;;;20.19;100.00
45621;BME280;31345;51.522;10.702;2023-09-12T07:11:56;98844.09;;;20.29;100.00
45621;BME280;31345;51.522;10.702;2023-09-12T07:14:28;98843.72;;;20.41;100.00
45621;BME280;31345;51.522;10.702;2023-09-12T07:17:02;98835.22;;;20.54;100.00
45621;BME280;31345;51.522;10.702;2023-09-12T07:19:37;98841.16;;;20.64;100.00
45621;BME280;31345;51.522;10.702;2023-09-12T07:22:09;98840.63;;;20.77;100.00
45621;BME280;31345;51.522;10.702;2023-09-12T07:24:42;98841.72;;;20.91;100.00
45621;BME280;31345;51.522;10.702;2023-09-12T07:27:14;98846.63;;;21.03;100.00
45621;BME280;31345;51.522;10.702;2023-09-12T07:29:47;98847.41;;;21.12;99.84
45621;BME280;31345;51.522;10.702;2023-09-12T07:32:19;98847.66;;;21.25;100.00
45621;BME280;31345;51.522;10.702;2023-09-12T07:34:54;98844.69;;;21.43;100.00
45621;BME280;31345;51.522;10.702;2023-09-12T07:37:26;98845.97;;;21.56;100.00
45621;BME280;31345;51.522;10.702;2023-09-12T07:39:59;98848.38;;;21.66;98.08
45621;BME280;31345;51.522;10.702;2023-09-12T07:42:32;98854.56;;;21.81;98.09
45621;BME280;31345;51.522;10.702;2023-09-12T07:45:05;98851.91;;;21.96;96.98
45621;BME280;31345;51.522;10.702;2023-09-12T07:47:38;98853.25;;;22.16;97.27
45621;BME280;31345;51.522;10.702;2023-09-12T07:50:08;98854.91;;;22.17;97.24
45621;BME280;31345;51.522;10.702;2023-09-12T07:52:35;98854.03;;;22.40;96.18
45621;BME280;31345;51.522;10.702;2023-09-12T07:55:08;98854.38;;;22.51;97.53
45621;BME280;31345;51.522;10.702;2023-09-12T07:57:41;98848.31;;;22.58;95.99
45621;BME280;31345;51.522;10.702;2023-09-12T08:00:14;98843.13;;;22.71;96.90
45621;BME280;31345;51.522;10.702;2023-09-12T08:02:43;98829.88;;;22.93;94.24
45621;BME280;31345;51.522;10.702;2023-09-12T08:05:17;98832.84;;;23.05;92.21
45621;BME280;31345;51.522;10.702;2023-09-12T08:07:45;98832.94;;;23.12;92.71
45621;BME280;31345;51.522;10.702;2023-09-12T08:10:18;98826.44;;;23.36;93.90
45621;BME280;31345;51.522;10.702;2023-09-12T08:12:50;98819.59;;;23.56;95.30
45621;BME280;31345;51.522;10.702;2023-09-12T08:15:23;98813.38;;;23.70;90.64
45621;BME280;31345;51.522;10.702;2023-09-12T08:17:56;98809.63;;;23.93;88.55
45621;BME280;31345;51.522;10.702;2023-09-12T08:20:30;98808.09;;;24.05;84.40
45621;BME280;31345;51.522;10.702;2023-09-12T08:23:04;98808.84;;;24.28;85.05
45621;BME280;31345;51.522;10.702;2023-09-12T08:25:37;98808.97;;;24.62;82.35
45621;BME280;31345;51.522;10.702;2023-09-12T08:28:12;98815.28;;;24.96;84.69
45621;BME280;31345;51.522;10.702;2023-09-12T08:30:47;98821.25;;;24.98;78.46
45621;BME280;31345;51.522;10.702;2023-09-12T08:33:16;98813.13;;;24.78;74.13
45621;BME280;31345;51.522;10.702;2023-09-12T08:35:45;98812.22;;;24.50;77.52
45621;BME280;31345;51.522;10.702;2023-09-12T08:38:17;98818.25;;;24.17;75.03
45621;BME280;31345;51.522;10.702;2023-09-12T08:40:50;98819.41;;;24.08;77.03
45621;BME280;31345;51.522;10.702;2023-09-12T08:43:20;98819.91;;;24.25;79.30
45621;BME280;31345;51.522;10.702;2023-09-12T08:45:50;98817.53;;;24.43;78.42
45621;BME280;31345;51.522;10.702;2023-09-12T08:48:23;98817.44;;;24.79;74.25
45621;BME280;31345;51.522;10.702;2023-09-12T08:50:53;98824.78;;;25.12;78.97
45621;BME280;31345;51.522;10.702;2023-09-12T08:53:27;98815.53;;;25.15;75.84
45621;BME280;31345;51.522;10.702;2023-09-12T08:55:59;98816.97;;;25.24;73.83
45621;BME280;31345;51.522;10.702;2023-09-12T08:58:35;98825.00;;;25.31;70.53
45621;BME280;31345;51.522;10.702;2023-09-12T09:01:06;98826.66;;;25.45;71.07
45621;BME280;31345;51.522;10.702;2023-09-12T09:03:41;98837.78;;;25.56;72.71
45621;BME280;31345;51.522;10.702;2023-09-12T09:06:16;98830.63;;;25.77;71.33
45621;BME280;31345;51.522;10.702;2023-09-12T09:08:50;98832.03;;;25.86;71.43
45621;BME280;31345;51.522;10.702;2023-09-12T09:11:23;98833.28;;;25.77;70.79
45621;BME280;31345;51.522;10.702;2023-09-12T09:14:00;98838.88;;;25.62;70.50
45621;BME280;31345;51.522;10.702;2023-09-12T09:16:34;98837.56;;;25.51;71.08
45621;BME280;31345;51.522;10.702;2023-09-12T09:19:07;98831.41;;;25.50;67.13
45621;BME280;31345;51.522;10.702;2023-09-12T09:21:43;98820.91;;;25.42;69.11
45621;BME280;31345;51.522;10.702;2023-09-12T09:24:17;98818.44;;;25.40;70.54
45621;BME280;31345;51.522;10.702;2023-09-12T09:26:47;98815.34;;;25.43;71.44
45621;BME280;31345;51.522;10.702;2023-09-12T09:29:18;98804.22;;;25.40;69.42
45621;BME280;31345;51.522;10.702;2023-09-12T09:31:51;98809.16;;;25.50;70.88
45621;BME280;31345;51.522;10.702;2023-09-12T09:34:24;98803.22;;;25.48;71.42
45621;BME280;31345;51.522;10.702;2023-09-12T09:37:02;98807.53;;;25.35;69.91
45621;BME280;31345;51.522;10.702;2023-09-12T09:39:35;98796.59;;;25.37;64.14
45621;BME280;31345;51.522;10.702;2023-09-12T09:42:10;98796.19;;;25.33;71.16
45621;BME280;31345;51.522;10.702;2023-09-12T09:44:43;98799.69;;;25.27;73.37
45621;BME280;31345;51.522;10.702;2023-09-12T09:47:17;98799.69;;;25.20;74.12
45621;BME280;31345;51.522;10.702;2023-09-12T09:49:51;98805.44;;;25.10;70.67
45621;BME280;31345;51.522;10.702;2023-09-12T09:52:26;98820.03;;;25.01;68.07
45621;BME280;31345;51.522;10.702;2023-09-12T09:54:59;98823.94;;;24.98;72.58
45621;BME280;31345;51.522;10.702;2023-09-12T09:57:27;98813.00;;;24.93;72.53
45621;BME280;31345;51.522;10.702;2023-09-12T09:59:59;98803.97;;;24.94;69.20
45621;BME280;31345;51.522;10.702;2023-09-12T10:02:32;98817.34;;;25.01;76.22
45621;BME280;31345;51.522;10.702;2023-09-12T10:05:00;98813.69;;;25.15;76.49
45621;BME280;31345;51.522;10.702;2023-09-12T10:07:40;98814.72;;;25.28;75.78
45621;BME280;31345;51.522;10.702;2023-09-12T10:10:16;98800.53;;;25.48;68.48
45621;BME280;31345;51.522;10.702;2023-09-12T10:12:50;98808.56;;;25.68;69.36
45621;BME280;31345;51.522;10.702;2023-09-12T10:15:28;98815.97;;;25.86;70.25
45621;BME280;31345;51.522;10.702;2023-09-12T10:18:06;98817.81;;;25.92;64.62
45621;BME280;31345;51.522;10.702;2023-09-12T10:20:41;98825.03;;;26.05;66.60
45621;BME280;31345;51.522;10.702;2023-09-12T10:23:19;98823.09;;;26.33;66.85
45621;BME280;31345;51.522;10.702;2023-09-12T10:25:55;98825.94;;;26.52;65.21
45621;BME280;31345;51.522;10.702;2023-09-12T10:28:29;98820.78;;;26.50;64.28
45621;BME280;31345;51.522;10.702;2023-09-12T10:31:04;98824.13;;;26.32;63.98
45621;BME280;31345;51.522;10.702;2023-09-12T10:33:37;98818.16;;;26.23;63.49
45621;BME280;31345;51.522;10.702;2023-09-12T10:36:11;98825.16;;;26.24;67.11
45621;BME280;31345;51.522;10.702;2023-09-12T10:38:47;98821.03;;;26.28;67.24
45621;BME280;31345;51.522;10.702;2023-09-12T10:41:21;98827.16;;;26.49;64.32
45621;BME280;31345;51.522;10.702;2023-09-12T10:43:57;98819.69;;;26.71;64.99
45621;BME280;31345;51.522;10.702;2023-09-12T10:46:31;98815.53;;;26.75;63.67
45621;BME280;31345;51.522;10.702;2023-09-12T10:49:00;98815.50;;;26.82;65.70
45621;BME280;31345;51.522;10.702;2023-09-12T10:51:35;98818.56;;;26.86;62.36
45621;BME280;31345;51.522;10.702;2023-09-12T10:54:15;98830.97;;;26.80;61.68
45621;BME280;31345;51.522;10.702;2023-09-12T10:57:01;98833.72;;;26.67;61.46
45621;BME280;31345;51.522;10.702;2023-09-12T10:59:29;98830.41;;;26.65;60.81
45621;BME280;31345;51.522;10.702;2023-09-12T11:02:28;98826.97;;;26.51;61.41
45621;BME280;31345;51.522;10.702;2023-09-12T11:05:02;98830.53;;;26.38;65.18
45621;BME280;31345;51.522;10.702;2023-09-12T11:07:44;98826.00;;;26.24;61.00
45621;BME280;31345;51.522;10.702;2023-09-12T11:10:17;98818.22;;;26.09;62.84
45621;BME280;31345;51.522;10.702;2023-09-12T11:12:51;98809.38;;;25.95;61.79
45621;BME280;31345;51.522;10.702;2023-09-12T11:15:20;98812.66;;;25.97;62.53
45621;BME280;31345;51.522;10.702;2023-09-12T11:18:03;98813.91;;;25.95;61.10
45621;BME280;31345;51.522;10.702;2023-09-12T11:20:50;98804.44;;;25.92;61.13
45621;BME280;31345;51.522;10.702;2023-09-12T11:23:24;98807.69;;;26.15;62.36
45621;BME280;31345;51.522;10.702;2023-09-12T11:26:05;98810.63;;;26.66;62.44
45621;BME280;31345;51.522;10.702;2023-09-12T11:28:33;98812.63;;;27.16;59.64
45621;BME280;31345;51.522;10.702;2023-09-12T11:31:06;98803.13;;;27.46;58.04
45621;BME280;31345;51.522;10.702;2023-09-12T11:33:40;98802.31;;;27.45;59.48
45621;BME280;31345;51.522;10.702;2023-09-12T11:36:13;98798.13;;;27.24;56.05
45621;BME280;31345;51.522;10.702;2023-09-12T11:38:41;98806.50;;;27.02;57.52
45621;BME280;31345;51.522;10.702;2023-09-12T11:41:40;98803.97;;;26.75;59.96
45621;BME280;31345;51.522;10.702;2023-09-12T11:44:13;98803.97;;;26.75;57.88
45621;BME280;31345;51.522;10.702;2023-09-12T11:46:47;98803.94;;;26.82;59.76
45621;BME280;31345;51.522;10.702;2023-09-12T11:49:16;98812.50;;;26.97;57.12
45621;BME280;31345;51.522;10.702;2023-09-12T11:51:50;98810.97;;;27.15;60.21
45621;BME280;31345;51.522;10.702;2023-09-12T11:54:25;98803.50;;;27.49;56.55
45621;BME280;31345;51.522;10.702;2023-09-12T11:56:54;98797.56;;;27.66;58.03
45621;BME280;31345;51.522;10.702;2023-09-12T11:59:28;98790.50;;;27.72;55.83
45621;BME280;31345;51.522;10.702;2023-09-12T12:02:01;98795.84;;;27.78;57.09
45621;BME280;31345;51.522;10.702;2023-09-12T12:04:34;98802.84;;;27.54;56.23
45621;BME280;31345;51.522;10.702;2023-09-12T12:07:07;98803.88;;;27.53;56.10
45621;BME280;31345;51.522;10.702;2023-09-12T12:09:40;98795.03;;;27.78;54.12
45621;BME280;31345;51.522;10.702;2023-09-12T12:12:14;98800.69;;;27.88;56.05
45621;BME280;31345;51.522;10.702;2023-09-12T12:14:42;98792.81;;;28.12;55.37
45621;BME280;31345;51.522;10.702;2023-09-12T12:17:16;98794.16;;;28.03;54.93
45621;BME280;31345;51.522;10.702;2023-09-12T12:19:45;98801.25;;;27.97;52.95
45621;BME280;31345;51.522;10.702;2023-09-12T12:22:20;98793.03;;;28.29;56.55
45621;BME280;31345;51.522;10.702;2023-09-12T12:24:54;98789.06;;;28.32;54.62
45621;BME280;31345;51.522;10.702;2023-09-12T12:27:29;98788.53;;;28.23;52.64
45621;BME280;31345;51.522;10.702;2023-09-12T12:29:57;98786.69;;;28.24;51.11
45621;BME280;31345;51.522;10.702;2023-09-12T12:32:29;98776.06;;;28.29;52.75
45621;BME280;31345;51.522;10.702;2023-09-12T12:35:02;98783.16;;;28.42;52.28
45621;BME280;31345;51.522;10.702;2023-09-12T12:37:36;98777.13;;;28.28;49.77
45621;BME280;31345;51.522;10.702;2023-09-12T12:40:12;98776.38;;;28.39;51.02
45621;BME280;31345;51.522;10.702;2023-09-12T12:42:47;98768.53;;;28.38;52.12
45621;BME280;31345;51.522;10.702;2023-09-12T12:45:21;98768.16;;;28.34;51.53
45621;BME280;31345;51.522;10.702;2023-09-12T12:47:57;98760.69;;;28.55;48.64
45621;BME280;31345;51.522;10.702;2023-09-12T12:50:35;98757.81;;;28.68;53.09
45621;BME280;31345;51.522;10.702;2023-09-12T12:53:08;98744.53;;;28.74;51.25
45621;BME280;31345;51.522;10.702;2023-09-12T12:55:42;98745.06;;;28.64;50.62
45621;BME280;31345;51.522;10.702;2023-09-12T12:58:16;98738.78;;;28.51;51.46
45621;BME280;31345;51.522;10.702;2023-09-12T13:00:48;98749.94;;;28.36;53.48
45621;BME280;31345;51.522;10.702;2023-09-12T13:03:21;98738.69;;;28.27;52.65
45621;BME280;31345;51.522;10.702;2023-09-12T13:05:53;98742.84;;;28.23;52.37
45621;BME280;31345;51.522;10.702;2023-09-12T13:08:26;98740.16;;;28.23;52.18
45621;BME280;31345;51.522;10.702;2023-09-12T13:10:53;98731.44;;;28.28;51.94
45621;BME280;31345;51.522;10.702;2023-09-12T13:13:28;98725.16;;;28.34;51.35
45621;BME280;31345;51.522;10.702;2023-09-12T13:16:00;98726.56;;;28.37;52.35
45621;BME280;31345;51.522;10.702;2023-09-12T13:18:34;98731.22;;;28.29;51.55
45621;BME280;31345;51.522;10.702;2023-09-12T13:21:07;98725.63;;;28.12;50.98